createdAt,value
2022-12-12T00:01:02.927Z,96.86
2022-12-12T00:06:26.484Z,96.76
2022-12-12T00:11:49.799Z,96.65
2022-12-12T00:17:11.457Z,96.35
2022-12-12T00:22:33.765Z,96.89
2022-12-12T00:27:57.185Z,96.49
2022-12-12T00:33:19.598Z,96.56
2022-12-12T00:38:42.274Z,96.01
2022-12-12T00:44:05.390Z,96.54
2022-12-12T00:49:27.240Z,96.51
2022-12-12T00:54:49.033Z,97.01
2022-12-12T01:00:16.578Z,96.55
2022-12-12T01:05:38.190Z,96.62
2022-12-12T01:11:00.187Z,96.35
2022-12-12T01:16:25.049Z,95.62
2022-12-12T01:21:46.653Z,96.36
2022-12-12T01:27:08.668Z,95.71
2022-12-12T01:32:32.109Z,95.95
2022-12-12T01:37:54.450Z,95.84
2022-12-12T01:43:18.838Z,95.47
2022-12-12T01:48:47.072Z,94.80
2022-12-12T01:54:11.579Z,95.16
2022-12-12T01:59:36.103Z,94.69
2022-12-12T02:05:02.949Z,94.65
2022-12-12T02:10:25.213Z,95.15
2022-12-12T02:15:59.341Z,95.08
2022-12-12T02:21:27.437Z,95.21
2022-12-12T02:27:18.307Z,95.28
2022-12-12T02:32:53.215Z,94.74
2022-12-12T02:38:27.114Z,94.55
2022-12-12T02:44:00.981Z,94.90
2022-12-12T02:49:30.957Z,94.94
2022-12-12T02:54:52.499Z,95.12
2022-12-12T03:00:17.956Z,94.89
2022-12-12T03:06:05.573Z,95.95
2022-12-12T03:11:41.698Z,95.46
2022-12-12T03:17:11.566Z,95.14
2022-12-12T03:22:44.912Z,95.29
2022-12-12T03:28:11.562Z,95.06
2022-12-12T03:33:37.268Z,94.87
2022-12-12T03:39:06.256Z,95.28
2022-12-12T03:44:38.171Z,95.75
2022-12-12T03:50:07.597Z,95.49
2022-12-12T03:55:38.621Z,95.41
2022-12-12T04:01:04.578Z,95.84
2022-12-12T04:06:35.139Z,95.65
2022-12-12T04:12:23.314Z,95.90
2022-12-12T04:17:50.863Z,96.19
2022-12-12T04:23:26.144Z,96.31
2022-12-12T04:28:55.664Z,96.42
2022-12-12T04:34:25.295Z,95.71
2022-12-12T04:39:50.941Z,96.26
2022-12-12T04:45:17.669Z,95.60
2022-12-12T04:50:40.560Z,96.42
2022-12-12T04:56:08.652Z,96.70
2022-12-12T05:01:39.162Z,96.48
2022-12-12T05:07:06.365Z,96.79
2022-12-12T05:12:28.618Z,96.75
2022-12-12T05:17:57.840Z,97.00
2022-12-12T05:23:19.793Z,96.76
2022-12-12T05:28:41.785Z,97.10
2022-12-12T05:34:05.053Z,96.94
2022-12-12T05:39:26.765Z,97.10
2022-12-12T05:44:48.404Z,96.69
2022-12-12T05:50:12.038Z,96.64
2022-12-12T05:55:33.935Z,96.71
2022-12-12T06:01:01.630Z,96.43
2022-12-12T06:06:26.790Z,97.03
2022-12-12T06:11:48.648Z,97.36
2022-12-12T06:17:10.330Z,96.58
2022-12-12T06:22:33.453Z,96.93
2022-12-12T06:27:55.350Z,97.39
2022-12-12T06:33:17.196Z,97.04
2022-12-12T06:38:41.117Z,96.44
2022-12-12T06:44:03.042Z,97.46
2022-12-12T06:49:25.019Z,97.42
2022-12-12T06:54:48.884Z,98.06
2022-12-12T07:00:11.855Z,97.27
2022-12-12T07:05:33.744Z,98.06
2022-12-12T07:10:58.528Z,97.76
2022-12-12T07:16:21.056Z,97.94
2022-12-12T07:21:42.669Z,98.62
2022-12-12T07:27:06.620Z,98.13
2022-12-12T07:32:28.985Z,98.48
2022-12-12T07:37:50.978Z,98.21
2022-12-12T07:43:14.192Z,98.78
2022-12-12T07:48:36.472Z,98.72
2022-12-12T07:53:58.143Z,99.53
2022-12-12T07:59:21.788Z,99.08
2022-12-12T08:04:43.961Z,99.83
2022-12-12T08:10:07.052Z,99.84
2022-12-12T08:15:30.505Z,99.39
2022-12-12T08:20:52.331Z,99.67
2022-12-12T08:26:18.297Z,99.42
2022-12-12T08:31:41.994Z,99.84
2022-12-12T08:37:03.953Z,99.21
2022-12-12T08:42:25.791Z,99.65
2022-12-12T08:47:49.087Z,99.79
2022-12-12T08:53:11.056Z,99.65
2022-12-12T08:58:33.067Z,99.95
2022-12-12T09:03:58.103Z,100.00
2022-12-12T09:09:20.042Z,99.47
2022-12-12T09:14:41.972Z,99.42
2022-12-12T09:20:05.860Z,98.89
2022-12-12T09:25:28.314Z,99.13
2022-12-12T09:30:50.525Z,98.47
2022-12-12T09:36:15.167Z,98.48
2022-12-12T09:41:37.187Z,98.00
2022-12-12T09:47:03.796Z,97.97
2022-12-12T09:52:32.341Z,97.67
2022-12-12T09:58:00.339Z,97.50
2022-12-12T10:03:15.272Z,96.69
2022-12-12T10:08:29.947Z,96.19
2022-12-12T10:13:35.242Z,95.99
2022-12-12T10:18:43.389Z,95.42
2022-12-12T10:23:53.669Z,94.68
2022-12-12T10:29:11.217Z,94.30
2022-12-12T10:34:27.964Z,93.28
2022-12-12T10:39:42.305Z,92.63
2022-12-12T10:45:16.521Z,91.94
2022-12-12T10:50:27.509Z,92.22
2022-12-12T10:55:40.313Z,91.24
2022-12-12T11:00:45.808Z,91.39
2022-12-12T11:05:49.849Z,90.13
2022-12-12T11:11:08.296Z,89.78
2022-12-12T11:16:17.601Z,89.49
2022-12-12T11:21:22.060Z,88.96
2022-12-12T11:26:29.805Z,88.90
2022-12-12T11:31:36.879Z,88.50
2022-12-12T11:36:42.772Z,88.06
2022-12-12T11:42:02.012Z,87.68
2022-12-12T11:47:25.730Z,86.42
2022-12-12T11:52:31.502Z,86.73
2022-12-12T11:58:03.285Z,86.11
2022-12-12T12:03:24.044Z,86.58
2022-12-12T12:08:40.879Z,86.34
2022-12-12T12:14:05.055Z,86.15
2022-12-12T12:19:15.528Z,86.37
2022-12-12T12:24:49.867Z,85.46
2022-12-12T12:30:13.472Z,86.18
2022-12-12T12:35:29.784Z,87.07
2022-12-12T12:40:51.426Z,85.81
2022-12-12T12:46:02.834Z,86.07
2022-12-12T12:51:13.070Z,86.29
2022-12-12T12:56:26.464Z,86.28
2022-12-12T13:01:35.834Z,86.15
2022-12-12T13:06:45.514Z,86.18
2022-12-12T13:11:52.460Z,85.68
2022-12-12T13:17:00.543Z,85.52
2022-12-12T13:22:09.210Z,85.25
2022-12-12T13:27:20.785Z,85.60
2022-12-12T13:32:49.941Z,85.57
2022-12-12T13:37:55.363Z,85.71
2022-12-12T13:43:08.722Z,85.42
2022-12-12T13:48:48.305Z,84.91
2022-12-12T13:54:30.407Z,85.27
2022-12-12T13:59:33.854Z,85.83
2022-12-12T14:04:39.657Z,85.87
2022-12-12T14:09:49.364Z,86.26
2022-12-12T14:14:57.243Z,86.58
2022-12-12T14:20:01.390Z,85.92
2022-12-12T14:25:09.664Z,85.29
2022-12-12T14:30:18.933Z,85.94
2022-12-12T14:35:33.378Z,86.30
2022-12-12T14:40:41.609Z,85.97
2022-12-12T14:45:55.968Z,86.32
2022-12-12T14:51:04.572Z,86.27
2022-12-12T14:56:13.364Z,86.23
2022-12-12T15:01:27.838Z,86.37
2022-12-12T15:06:34.549Z,86.61
2022-12-12T15:11:39.784Z,86.52
2022-12-12T15:16:48.631Z,86.65
2022-12-12T15:21:52.810Z,86.99
2022-12-12T15:26:59.716Z,87.58
2022-12-12T15:32:05.327Z,87.72
2022-12-12T15:37:28.241Z,87.11
2022-12-12T15:42:33.320Z,87.24
2022-12-12T15:47:36.975Z,87.85
2022-12-12T15:52:40.331Z,87.70
2022-12-12T15:57:49.848Z,87.55
2022-12-12T16:03:03.288Z,87.67
2022-12-12T16:08:38.878Z,87.65
2022-12-12T16:13:45.186Z,88.02
2022-12-12T16:18:48.503Z,87.65
2022-12-12T16:23:51.752Z,88.07
2022-12-12T16:28:56.260Z,87.53
2022-12-12T16:34:03.630Z,87.93
2022-12-12T16:39:08.501Z,87.85
2022-12-12T16:44:13.275Z,88.88
2022-12-12T16:49:16.663Z,88.06
2022-12-12T16:54:20.279Z,87.85
2022-12-12T16:59:25.182Z,87.98
2022-12-12T17:04:29.118Z,88.10
2022-12-12T17:09:32.527Z,88.85
2022-12-12T17:14:37.620Z,88.22
2022-12-12T17:19:40.961Z,87.85
2022-12-12T17:24:44.419Z,88.18
2022-12-12T17:29:49.300Z,88.66
2022-12-12T17:34:52.811Z,88.73
2022-12-12T17:39:56.159Z,88.62
2022-12-12T17:45:01.700Z,88.70
2022-12-12T17:50:08.095Z,88.76
2022-12-12T17:55:53.711Z,88.56
2022-12-12T18:01:01.224Z,88.24
2022-12-12T18:06:09.749Z,88.63
2022-12-12T18:11:22.044Z,88.53
2022-12-12T18:16:39.832Z,88.69
2022-12-12T18:22:01.185Z,88.58
2022-12-12T18:27:09.156Z,88.24
2022-12-12T18:32:27.623Z,87.74
2022-12-12T18:43:21.716Z,87.93
2022-12-12T18:48:36.026Z,88.30
2022-12-12T18:53:46.321Z,87.87
2022-12-12T18:58:59.134Z,88.57
2022-12-12T19:04:23.952Z,88.01
2022-12-12T19:09:35.518Z,88.10
2022-12-12T19:20:24.573Z,87.81
2022-12-12T19:25:37.600Z,87.78
2022-12-12T19:30:46.493Z,87.39
2022-12-12T19:35:55.311Z,88.10
2022-12-12T19:41:10.896Z,88.32
2022-12-12T19:46:22.621Z,87.97
2022-12-12T19:51:38.264Z,88.04
2022-12-12T19:56:50.137Z,87.99
2022-12-12T20:01:58.682Z,88.50
2022-12-12T20:07:13.684Z,87.84
2022-12-12T20:12:23.879Z,87.71
2022-12-12T20:17:31.318Z,87.67
2022-12-12T20:22:39.278Z,87.71
2022-12-12T20:28:03.709Z,87.75
2022-12-12T20:33:14.309Z,87.58
2022-12-12T20:38:28.182Z,87.47
2022-12-12T20:43:37.715Z,87.76
2022-12-12T20:49:09.632Z,87.73
2022-12-12T20:54:34.450Z,87.40
2022-12-12T20:59:41.011Z,88.02
2022-12-12T21:04:50.767Z,87.78
2022-12-12T21:10:07.775Z,87.46
2022-12-12T21:15:18.077Z,87.93
2022-12-12T21:20:23.485Z,88.11
2022-12-12T21:25:58.080Z,87.87
2022-12-12T21:36:35.511Z,87.78
2022-12-12T21:41:57.323Z,87.65
2022-12-12T21:47:03.411Z,88.78
2022-12-12T21:52:15.382Z,88.47
2022-12-12T21:57:32.221Z,88.72
2022-12-12T22:02:39.020Z,89.83
2022-12-12T22:07:49.133Z,89.56
2022-12-12T22:13:13.667Z,89.48
2022-12-12T22:18:30.033Z,90.25
2022-12-12T22:23:44.065Z,90.47
2022-12-12T22:29:01.561Z,90.48
2022-12-12T22:34:09.591Z,89.93
2022-12-12T22:39:18.275Z,90.53
2022-12-12T22:44:27.535Z,90.44
2022-12-12T22:49:42.828Z,91.17
2022-12-12T22:54:48.035Z,91.70
2022-12-12T23:00:01.237Z,91.55
2022-12-12T23:05:19.936Z,91.75
2022-12-12T23:10:36.221Z,91.94
2022-12-12T23:16:03.185Z,93.00
2022-12-12T23:21:17.224Z,92.66
2022-12-12T23:26:47.482Z,93.66
2022-12-12T23:32:00.202Z,93.19
2022-12-12T23:37:17.989Z,93.01
2022-12-12T23:42:24.577Z,93.19
2022-12-12T23:47:53.660Z,93.21
2022-12-12T23:53:07.573Z,92.94
2022-12-12T23:58:23.550Z,93.33
